createdAt,value
2023-02-06T07:23:01.433Z,21.62
2023-02-06T07:25:35.196Z,21.75
2023-02-06T07:28:06.114Z,21.87
2023-02-06T07:30:40.876Z,21.87
2023-02-06T07:33:08.569Z,21.89
2023-02-06T07:35:47.440Z,22.16
2023-02-06T07:38:17.549Z,22.22
2023-02-06T07:40:50.790Z,22.26
2023-02-06T07:43:20.869Z,22.13
2023-02-06T07:45:50.605Z,22.00
2023-02-06T07:48:18.295Z,21.97
2023-02-06T07:50:45.973Z,22.14
2023-02-06T07:53:22.492Z,22.13
2023-02-06T07:55:51.096Z,22.12
2023-02-06T07:58:21.565Z,22.09
2023-02-06T08:00:49.105Z,22.09
2023-02-06T08:03:21.933Z,22.09
2023-02-06T08:05:52.539Z,22.14
2023-02-06T08:08:19.988Z,22.17
2023-02-06T08:10:50.439Z,22.13
2023-02-06T08:13:20.922Z,22.17
2023-02-06T08:15:48.767Z,22.18
2023-02-06T08:18:21.917Z,22.19
2023-02-06T08:20:51.559Z,22.18
2023-02-06T08:23:20.951Z,22.27
2023-02-06T08:25:49.607Z,22.33
2023-02-06T08:28:17.588Z,22.35
2023-02-06T08:30:45.799Z,22.31
2023-02-06T08:33:21.332Z,22.40
2023-02-06T08:36:24.542Z,22.39
2023-02-06T08:38:55.152Z,22.33
2023-02-06T08:41:25.591Z,22.28
2023-02-06T08:43:59.552Z,22.49
2023-02-06T08:46:32.601Z,22.46
2023-02-06T08:49:11.074Z,22.46
2023-02-06T08:51:43.641Z,22.46
2023-02-06T08:54:20.793Z,22.45
2023-02-06T08:56:57.616Z,22.43
2023-02-06T08:59:31.936Z,22.43
2023-02-06T09:02:02.692Z,22.46
2023-02-06T09:04:38.856Z,22.44
2023-02-06T09:07:06.870Z,22.52
2023-02-06T09:09:37.434Z,22.53
2023-02-06T09:12:15.500Z,22.68
2023-02-06T09:14:48.441Z,22.60
2023-02-06T09:17:23.862Z,22.55
2023-02-06T09:19:57.268Z,22.66
2023-02-06T09:22:28.428Z,22.79
2023-02-06T09:25:02.853Z,22.67
2023-02-06T09:27:33.697Z,22.71
2023-02-06T09:30:04.726Z,22.63
2023-02-06T09:32:38.288Z,22.60
2023-02-06T09:35:12.032Z,22.54
2023-02-06T09:37:48.800Z,22.54
2023-02-06T09:40:24.519Z,22.56
2023-02-06T09:42:58.914Z,22.58
2023-02-06T09:45:35.705Z,22.59
2023-02-06T09:48:17.661Z,22.62
2023-02-06T09:50:56.055Z,22.68
2023-02-06T09:53:48.307Z,22.61
2023-02-06T09:56:43.245Z,22.71
2023-02-06T09:59:24.096Z,22.70
2023-02-06T10:02:07.714Z,22.61
2023-02-06T10:05:20.746Z,22.59
2023-02-06T10:08:34.262Z,22.72
2023-02-06T10:11:28.667Z,22.65
2023-02-06T10:14:06.948Z,22.69
2023-02-06T10:17:36.652Z,22.72
2023-02-06T10:20:15.995Z,22.73
2023-02-06T10:23:30.802Z,22.63
2023-02-06T10:26:07.418Z,22.63
2023-02-06T10:28:35.501Z,22.61
2023-02-06T10:31:21.165Z,22.60
2023-02-06T10:33:57.986Z,22.60
2023-02-06T10:36:49.627Z,22.77
2023-02-06T10:39:40.995Z,22.77
2023-02-06T10:42:52.102Z,22.73
2023-02-06T10:45:34.443Z,22.70
2023-02-06T10:48:34.269Z,22.73
2023-02-06T10:51:45.644Z,22.91
2023-02-06T10:54:26.798Z,22.70
2023-02-06T10:56:58.417Z,22.80
2023-02-06T10:59:34.236Z,22.75
2023-02-06T11:02:08.115Z,22.67
2023-02-06T11:04:55.286Z,22.73
2023-02-06T11:07:45.278Z,22.72
2023-02-06T11:10:16.643Z,22.68
2023-02-06T11:12:58.337Z,22.65
2023-02-06T11:15:43.329Z,22.75
2023-02-06T11:18:17.600Z,22.76
2023-02-06T11:20:50.934Z,23.03
2023-02-06T11:23:29.186Z,22.86
2023-02-06T11:26:16.873Z,22.74
2023-02-06T11:28:59.915Z,22.71
2023-02-06T11:31:58.681Z,22.85
2023-02-06T11:35:04.917Z,22.96
2023-02-06T11:37:44.639Z,23.11
2023-02-06T11:40:28.454Z,23.29
2023-02-06T11:43:25.884Z,23.11
2023-02-06T11:46:06.956Z,23.08
2023-02-06T11:48:40.500Z,23.04
2023-02-06T11:51:18.150Z,23.15
2023-02-06T11:54:22.870Z,23.17
2023-02-06T11:57:08.220Z,23.04
2023-02-06T12:00:00.240Z,23.37
2023-02-06T12:02:30.759Z,23.25
2023-02-06T12:05:25.144Z,23.20
2023-02-06T12:08:19.079Z,23.01
2023-02-06T12:11:07.001Z,23.19
2023-02-06T12:13:49.766Z,23.23
2023-02-06T12:16:27.402Z,23.13
2023-02-06T12:19:04.206Z,23.01
2023-02-06T12:21:53.885Z,22.95
2023-02-06T12:24:36.722Z,23.12
2023-02-06T12:27:44.486Z,23.27
2023-02-06T12:30:32.789Z,23.19
2023-02-06T12:33:10.161Z,23.10
2023-02-06T12:35:49.044Z,22.96
2023-02-06T12:38:43.386Z,22.85
2023-02-06T12:41:50.254Z,22.90
2023-02-06T12:44:29.053Z,22.85
2023-02-06T12:47:07.652Z,23.07
2023-02-06T12:50:13.692Z,23.08
2023-02-06T12:53:11.179Z,22.97
2023-02-06T12:55:51.883Z,22.89
2023-02-06T12:58:51.646Z,22.90
2023-02-06T13:01:33.037Z,23.00
2023-02-06T13:04:24.717Z,23.04
2023-02-06T13:07:00.118Z,23.00
2023-02-06T13:09:41.796Z,22.98
2023-02-06T13:12:25.541Z,23.36
2023-02-06T13:15:01.071Z,23.47
2023-02-06T13:17:42.799Z,23.31
2023-02-06T13:20:24.455Z,23.28
2023-02-06T13:23:14.057Z,23.58
2023-02-06T13:25:44.264Z,23.58
2023-02-06T13:28:25.575Z,23.85
2023-02-06T13:31:07.361Z,23.88
2023-02-06T13:34:01.548Z,23.75
2023-02-06T13:36:50.233Z,23.53
2023-02-06T13:39:34.025Z,24.06
2023-02-06T13:42:43.414Z,23.98
2023-02-06T13:45:25.616Z,23.66
2023-02-06T13:48:12.204Z,23.79
2023-02-06T13:50:54.986Z,23.81
2023-02-06T13:53:56.450Z,23.96
2023-02-06T13:56:45.740Z,23.83
2023-02-06T13:59:24.930Z,23.73
2023-02-06T14:01:59.209Z,24.03
2023-02-06T14:04:43.860Z,23.82
2023-02-06T14:07:34.764Z,23.92
2023-02-06T14:10:56.241Z,24.05
2023-02-06T14:13:52.154Z,24.02
2023-02-06T14:16:38.324Z,23.87
2023-02-06T14:19:20.688Z,23.66
2023-02-06T14:22:33.677Z,23.96
2023-02-06T14:25:39.502Z,23.88
2023-02-06T14:28:47.145Z,24.06
2023-02-06T14:31:38.818Z,24.17
2023-02-06T14:34:22.783Z,24.27
2023-02-06T14:37:10.250Z,23.81
2023-02-06T14:40:04.412Z,23.72
2023-02-06T14:42:39.049Z,23.57
2023-02-06T14:45:18.659Z,23.79
2023-02-06T14:47:50.201Z,24.07
2023-02-06T14:50:25.215Z,23.95
2023-02-06T14:53:00.800Z,23.84
2023-02-06T14:55:36.598Z,24.04
2023-02-06T14:58:28.326Z,24.13
2023-02-06T15:01:32.574Z,24.29
2023-02-06T15:04:14.687Z,24.13
2023-02-06T15:07:03.302Z,23.85
2023-02-06T15:09:46.756Z,23.77
2023-02-06T15:12:25.223Z,23.85
2023-02-06T15:15:01.019Z,23.78
2023-02-06T15:17:35.146Z,23.63
2023-02-06T15:20:30.931Z,23.48
2023-02-06T15:23:21.767Z,23.56
2023-02-06T15:26:03.405Z,24.37
2023-02-06T15:28:41.506Z,24.36
2023-02-06T15:31:23.671Z,24.46
2023-02-06T15:33:59.708Z,24.28
2023-02-06T15:36:38.541Z,23.90
2023-02-06T15:39:15.406Z,23.74
2023-02-06T15:41:52.062Z,23.87
2023-02-06T15:44:26.069Z,23.83
2023-02-06T15:47:06.646Z,24.09
2023-02-06T15:49:41.496Z,24.23
2023-02-06T15:52:32.029Z,23.96
2023-02-06T15:55:10.937Z,23.82
2023-02-06T15:57:43.817Z,23.99
2023-02-06T16:00:27.866Z,23.84
2023-02-06T16:03:17.734Z,23.65
2023-02-06T16:05:52.570Z,23.62
2023-02-06T16:08:27.597Z,23.54
2023-02-06T16:11:03.273Z,23.57
2023-02-06T16:13:39.735Z,23.54
2023-02-06T16:16:28.528Z,23.53
2023-02-06T16:19:02.441Z,23.55
2023-02-06T16:21:35.411Z,23.67
2023-02-06T16:24:16.694Z,23.56
2023-02-06T16:26:50.173Z,23.84
2023-02-06T16:29:27.608Z,23.78
2023-02-06T16:32:13.523Z,24.00
2023-02-06T16:34:48.811Z,23.77
2023-02-06T16:37:28.590Z,23.63
2023-02-06T16:40:02.537Z,24.07
2023-02-06T16:42:41.555Z,23.78
2023-02-06T16:45:22.516Z,23.60
2023-02-06T16:47:56.202Z,23.39
2023-02-06T16:50:30.234Z,23.61
2023-02-06T16:53:03.629Z,23.77
2023-02-06T16:55:33.497Z,23.58
2023-02-06T16:58:10.165Z,23.59
2023-02-06T17:00:43.427Z,23.62
2023-02-06T17:03:18.076Z,23.63
2023-02-06T17:05:50.511Z,23.54
2023-02-06T17:08:24.135Z,23.59
2023-02-06T17:10:54.666Z,23.42
2023-02-06T17:13:27.269Z,23.57
2023-02-06T17:16:03.681Z,23.51
2023-02-06T17:18:37.158Z,23.48
2023-02-06T17:21:09.535Z,23.48
2023-02-06T17:23:40.628Z,23.41
2023-02-06T17:26:17.425Z,23.44
2023-02-06T17:28:53.642Z,23.44
2023-02-06T17:31:29.081Z,23.38
2023-02-06T17:33:59.927Z,23.27
2023-02-06T17:36:30.105Z,23.25
2023-02-06T17:39:06.369Z,23.21
2023-02-06T17:41:36.893Z,23.32
2023-02-06T17:44:12.175Z,23.27
2023-02-06T17:46:44.496Z,23.27
2023-02-06T17:49:15.427Z,23.18
2023-02-06T17:51:43.861Z,23.21
2023-02-06T17:54:17.213Z,23.16
2023-02-06T17:56:44.927Z,22.95
2023-02-06T17:59:21.469Z,22.88
2023-02-06T18:01:54.000Z,22.76
2023-02-06T18:04:26.561Z,22.73
2023-02-06T18:07:04.637Z,22.76
2023-02-06T18:09:31.933Z,22.71
2023-02-06T18:12:04.259Z,22.70
2023-02-06T18:14:33.456Z,22.67
2023-02-06T18:17:03.491Z,22.58
2023-02-06T18:19:30.877Z,22.60
2023-02-06T18:22:01.534Z,22.64
2023-02-06T18:24:37.134Z,22.55
2023-02-06T18:27:12.947Z,22.56
2023-02-06T18:29:49.502Z,22.58
2023-02-06T18:32:21.937Z,22.55
2023-02-06T18:34:54.593Z,22.52
2023-02-06T18:37:26.537Z,22.50
2023-02-06T18:39:56.348Z,22.49
2023-02-06T18:42:47.293Z,22.50
2023-02-06T18:45:31.287Z,22.51
2023-02-06T18:48:07.465Z,22.63
2023-02-06T18:50:41.497Z,22.68
2023-02-06T18:53:11.741Z,22.43
2023-02-06T18:55:40.431Z,22.45
2023-02-06T18:59:18.405Z,22.60
2023-02-06T19:01:45.938Z,22.59
2023-02-06T19:04:21.865Z,22.58
2023-02-06T19:06:54.491Z,22.59
2023-02-06T19:09:24.630Z,22.65
2023-02-06T19:11:55.504Z,22.74
2023-02-06T19:14:25.509Z,22.72
2023-02-06T19:16:55.534Z,22.67
2023-02-06T19:19:25.015Z,22.68
2023-02-06T19:21:52.358Z,22.70
2023-02-06T19:24:23.347Z,22.69
2023-02-06T19:26:53.182Z,22.66
2023-02-06T19:29:34.831Z,22.63
2023-02-06T19:32:08.155Z,22.52
2023-02-06T19:34:39.731Z,22.50
2023-02-06T19:37:08.942Z,22.40
2023-02-06T19:39:40.400Z,22.41
2023-02-06T19:42:16.972Z,22.50
2023-02-06T19:44:50.856Z,22.54
2023-02-06T19:47:23.643Z,22.56
2023-02-06T19:49:56.235Z,22.45
2023-02-06T19:52:29.402Z,22.53
2023-02-06T19:54:56.750Z,22.50
2023-02-06T19:57:28.844Z,22.42
2023-02-06T19:59:58.433Z,22.43
2023-02-06T20:02:25.730Z,22.43
2023-02-06T20:04:55.398Z,22.36
2023-02-06T20:07:28.193Z,22.43
2023-02-06T20:09:58.466Z,22.43
2023-02-06T20:12:29.245Z,22.46
2023-02-06T20:15:00.312Z,22.53
2023-02-06T20:17:32.456Z,22.58
2023-02-06T20:20:02.045Z,22.49
2023-02-06T20:22:30.147Z,22.45
2023-02-06T20:25:04.973Z,22.50
2023-02-06T20:27:37.390Z,22.37
2023-02-06T20:30:08.040Z,22.21
2023-02-06T20:32:37.715Z,22.31
2023-02-06T20:35:09.426Z,22.27
2023-02-06T20:37:39.484Z,22.29
2023-02-06T20:40:07.028Z,22.44
2023-02-06T20:42:44.434Z,22.39
2023-02-06T20:45:20.475Z,22.26
2023-02-06T20:47:50.527Z,22.27
2023-02-06T20:50:23.089Z,22.12
2023-02-06T20:52:53.593Z,22.21
2023-02-06T20:55:20.929Z,22.34
2023-02-06T20:57:50.990Z,22.42
2023-02-06T21:00:20.687Z,22.40
2023-02-06T21:02:53.026Z,22.48
2023-02-06T21:05:27.020Z,22.37
2023-02-06T21:07:57.656Z,22.21
2023-02-06T21:10:25.578Z,22.26
2023-02-06T21:12:55.516Z,22.19
2023-02-06T21:15:26.720Z,22.23
2023-02-06T21:17:54.252Z,22.33
2023-02-06T21:20:26.493Z,22.30
2023-02-06T21:22:56.606Z,22.34
2023-02-06T21:25:25.844Z,22.28
2023-02-06T21:28:00.940Z,22.20
2023-02-06T21:30:30.419Z,22.11
2023-02-06T21:33:03.656Z,22.07
2023-02-06T21:35:33.696Z,22.19
2023-02-06T21:38:14.442Z,22.30
2023-02-06T21:40:44.946Z,22.22
2023-02-06T21:43:17.358Z,22.21
2023-02-06T21:45:46.417Z,22.11
2023-02-06T21:48:16.033Z,22.04
2023-02-06T21:50:44.827Z,21.95
2023-02-06T21:53:17.629Z,22.01
2023-02-06T21:55:45.551Z,22.06
2023-02-06T21:58:16.457Z,22.18
2023-02-06T22:00:45.961Z,22.24
2023-02-06T22:03:14.000Z,22.24
2023-02-06T22:05:44.536Z,22.21
2023-02-06T22:08:17.348Z,22.18
2023-02-06T22:10:44.733Z,22.14
2023-02-06T22:13:19.227Z,22.18
2023-02-06T22:15:51.359Z,22.20
2023-02-06T22:18:21.373Z,22.37
2023-02-06T22:20:52.146Z,22.53
2023-02-06T22:23:20.004Z,22.46
2023-02-06T22:25:50.146Z,22.67
2023-02-06T22:28:17.453Z,22.57
2023-02-06T22:30:50.160Z,22.25
2023-02-06T22:33:22.454Z,22.07
2023-02-06T22:35:52.079Z,22.27
2023-02-06T22:38:21.881Z,22.34
2023-02-06T22:41:01.780Z,22.60
2023-02-06T22:43:39.662Z,22.53
2023-02-06T22:46:10.095Z,22.56
2023-02-06T22:48:39.805Z,22.60
2023-02-06T22:51:09.977Z,22.27
2023-02-06T22:53:44.758Z,22.04
2023-02-06T22:56:31.142Z,22.28
2023-02-06T22:59:15.219Z,22.41
2023-02-06T23:01:47.743Z,22.40
2023-02-06T23:04:26.015Z,22.38
2023-02-06T23:06:53.627Z,22.22
2023-02-06T23:09:25.389Z,22.42
2023-02-06T23:11:53.629Z,22.33
2023-02-06T23:14:20.908Z,22.26
2023-02-06T23:16:49.061Z,22.22
2023-02-06T23:19:17.544Z,22.21
2023-02-06T23:21:46.915Z,22.14
2023-02-06T23:24:15.064Z,22.28
2023-02-06T23:26:51.583Z,22.45
2023-02-06T23:29:23.025Z,22.29
2023-02-06T23:31:50.841Z,22.13
2023-02-06T23:34:23.742Z,22.24
2023-02-06T23:36:51.983Z,22.17
2023-02-06T23:39:27.347Z,22.24
2023-02-06T23:41:59.454Z,22.22
2023-02-06T23:44:32.122Z,22.10
2023-02-06T23:47:01.733Z,22.12
2023-02-06T23:49:34.338Z,22.12
2023-02-06T23:52:07.368Z,22.13
2023-02-06T23:54:39.992Z,22.06
2023-02-06T23:57:10.289Z,22.15
2023-02-06T23:59:42.915Z,22.18
